CST,Max TemperatureF,Mean TemperatureF,Min TemperatureF,Max Dew PointF,MeanDew PointF,Min DewpointF,Max Humidity, Mean Humidity, Min Humidity, Max Sea Level PressureIn, Mean Sea Level PressureIn, Min Sea Level PressureIn, Max VisibilityMiles, Mean VisibilityMiles, Min VisibilityMiles, Max Wind SpeedMPH, Mean Wind SpeedMPH, Max Gust SpeedMPH,PrecipitationIn, CloudCover, Events, WindDirDegrees
2013-12-1,31,29,27,28,24,20,99,81,64,30.11,30.04,29.92,10,8,4,7,2,,0.00,8,,1
2013-12-2,32,29,26,25,22,20,83,74,67,29.92,29.82,29.75,10,9,7,14,4,20,0.00,8,Snow,147
2013-12-3,30,26,23,29,24,19,99,88,81,29.84,29.80,29.73,10,5,0,16,10,23,0.00,8,Snow,89
2013-12-4,32,28,23,33,27,20,100,95,85,29.84,29.59,29.29,10,4,0,14,8,21,0.10,8,Rain-Snow,103
2013-12-5,31,16,1,31,7,-5,98,80,72,30.06,29.74,29.35,10,6,1,25,16,32,0.10,8,Snow,257
2013-12-6,5,-2,-9,-2,-7,-15,80,76,68,30.37,30.22,30.07,10,10,10,14,8,17,0.00,3,,268
2013-12-7,1,-7,-15,-6,-13,-21,79,74,65,30.49,30.44,30.36,10,10,10,12,6,,0.00,0,,249
2013-12-8,9,-4,-16,4,-6,-22,82,78,73,30.42,30.22,29.91,10,6,1,7,1,,0.00,6,Snow,105
2013-12-9,8,-2,-12,4,-4,-18,85,76,66,29.91,29.82,29.72,10,6,1,23,6,30,0.00,6,Snow,255
2013-12-10,5,-2,-10,-2,-8,-16,79,74,68,30.03,29.84,29.71,10,8,1,15,5,23,0.00,6,Snow,263
2013-12-11,-2,-7,-12,-11,-15,-19,79,72,63,30.28,30.21,30.03,10,10,10,12,6,17,0.00,1,Snow,264
2013-12-12,8,-1,-10,3,-6,-17,79,74,67,30.20,30.08,30.01,10,9,3,13,6,18,0.00,7,Snow,260
2013-12-13,8,4,0,3,-3,-6,81,71,58,30.26,30.17,30.04,10,9,3,10,6,,0.00,5,Snow,40
2013-12-14,14,8,2,9,4,-4,85,77,71,30.25,30.05,29.79,10,6,1,8,4,,0.00,8,Snow,91
2013-12-15,12,-2,-17,8,-7,-23,82,72,60,30.01,29.87,29.79,10,8,2,20,10,23,0.00,2,Snow,296
2013-12-16,10,-6,-21,5,-8,-28,86,76,64,30.01,29.91,29.79,10,8,0,14,3,18,0.00,6,Snow,212
2013-12-17,23,16,8,21,11,3,98,83,68,29.92,29.78,29.70,10,6,2,16,7,22,0.00,8,Snow,280
2013-12-18,23,11,-1,12,3,-6,88,74,50,29.92,29.76,29.61,10,10,7,13,2,16,0.00,2,Snow,210
2013-12-19,20,10,1,18,9,-3,96,80,70,30.03,29.92,29.67,10,9,2,14,4,23,0.00,6,Snow,18
2013-12-20,18,9,0,14,9,-4,89,83,76,29.99,29.89,29.78,10,6,1,10,1,,0.00,6,Snow,65
2013-12-21,22,18,13,18,15,11,98,86,77,29.94,29.86,29.78,10,9,3,7,1,,0.00,8,Snow,34
2013-12-22,23,18,14,18,15,11,89,82,69,30.05,29.91,29.82,10,7,1,14,4,21,0.00,8,Snow,36
2013-12-23,14,2,-9,11,2,-16,87,79,66,30.31,30.20,30.06,10,8,2,10,2,,0.00,6,Snow,32
2013-12-24,15,2,-11,7,-3,-17,86,74,60,30.35,30.27,30.08,10,9,0,9,2,17,0.00,4,Snow,186
2013-12-25,14,10,7,9,5,2,85,80,72,30.07,29.96,29.92,10,5,1,10,5,,0.00,7,Snow,235
2013-12-26,11,6,2,5,2,-2,86,80,70,30.10,30.04,29.93,10,10,4,8,2,,0.00,7,Snow,283
2013-12-27,29,19,9,26,18,6,100,88,78,30.10,29.94,29.78,10,8,3,15,2,23,0.00,7,,216
2013-12-28,32,26,20,32,28,18,100,96,85,29.90,29.79,29.69,10,6,2,17,2,26,0.11,8,Snow,28
2013-12-29,19,4,-15,18,-3,-21,96,74,60,30.08,29.97,29.79,10,7,2,20,12,28,0.00,6,Snow,346
2013-12-30,-3,-14,-24,-13,-20,-31,80,68,51,30.14,30.07,30.01,10,10,5,4,0,,0.00,2,Snow,240
2013-12-31,-4,-13,-22,-13,-21,-29,77,70,57,30.27,30.11,29.99,10,10,7,12,2,16,0.00,1,Snow,287